Time;durP1;ratioP1;P1;durP2;ratioP2;P2;SDS_P1;SDS_P2;PMS_P1;PMS_P2;Temp;Humidity;BMP_temperature;BMP_pressure;BME280_temperature;BME280_humidity;BME280_pressure;Samples;Min_cycle;Max_cycle;Signal;HPM_P1;HPM_P2
2021/10/28 00:12:15;;;;;;;;;;;22.50;38.70;;;;;;479691;249;2115;-74
2021/10/28 00:14:15;;;;;;;;;;;22.50;38.70;;;;;;479583;248;1599;-74
2021/10/28 00:16:21;;;;;;;;;;;22.40;38.50;;;;;;479639;248;1331;-74
2021/10/28 00:18:26;;;;;;;;;;;22.40;38.60;;;;;;479375;248;1387;-74
2021/10/28 00:20:19;;;;;;;;;;;22.40;38.80;;;;;;479156;248;1401;-74
2021/10/28 00:22:22;;;;;;;;;;;22.40;38.60;;;;;;479722;248;1197;-74
2021/10/28 00:24:22;;;;;;;;;;;22.50;38.50;;;;;;479723;248;1429;-74
2021/10/28 00:26:24;;;;;;;;;;;22.30;38.80;;;;;;479579;245;1185;-74
2021/10/28 00:28:25;;;;;;;;;;;22.40;38.50;;;;;;479680;248;1070;-74
2021/10/28 00:30:27;;;;;;;;;;;22.20;38.90;;;;;;479589;248;1287;-74
2021/10/28 00:32:28;;;;;;;;;;;22.00;39.20;;;;;;479628;248;2190;-74
2021/10/28 00:34:30;;;;;;;;;;;22.10;39.00;;;;;;479611;248;1467;-74
2021/10/28 00:36:30;;;;;;;;;;;22.00;39.10;;;;;;479633;248;1691;-74
2021/10/28 00:38:33;;;;;;;;;;;22.30;39.00;;;;;;479574;248;1193;-74
2021/10/28 00:40:33;;;;;;;;;;;22.30;38.70;;;;;;479431;248;1499;-74
2021/10/28 00:42:34;;;;;;;;;;;22.30;38.80;;;;;;479403;248;1095;-74
2021/10/28 00:44:35;;;;;;;;;;;22.40;38.60;;;;;;479673;248;974;-74
2021/10/28 00:46:38;;;;;;;;;;;22.30;38.40;;;;;;479615;248;1397;-74
2021/10/28 00:48:39;;;;;;;;;;;22.40;38.50;;;;;;479684;248;1140;-74
2021/10/28 00:50:40;;;;;;;;;;;22.40;38.50;;;;;;479712;248;1470;-74
2021/10/28 00:52:41;;;;;;;;;;;22.30;38.50;;;;;;479604;248;2194;-74
2021/10/28 00:54:43;;;;;;;;;;;22.40;38.40;;;;;;479679;248;950;-74
2021/10/28 00:56:44;;;;;;;;;;;22.60;38.10;;;;;;479593;246;1347;-74
2021/10/28 00:58:46;;;;;;;;;;;22.60;38.00;;;;;;479651;248;1035;-74
2021/10/28 01:00:47;;;;;;;;;;;22.50;38.10;;;;;;479581;248;1197;-74
2021/10/28 01:02:49;;;;;;;;;;;22.60;37.80;;;;;;479635;248;1192;-74
2021/10/28 01:04:50;;;;;;;;;;;22.40;38.30;;;;;;479753;248;1523;-74
2021/10/28 01:06:51;;;;;;;;;;;22.50;38.00;;;;;;479590;248;1225;-74
2021/10/28 01:08:52;;;;;;;;;;;22.40;38.00;;;;;;479726;248;944;-74
2021/10/28 01:10:54;;;;;;;;;;;22.70;37.80;;;;;;479628;248;2123;-74
2021/10/28 01:12:55;;;;;;;;;;;22.40;38.10;;;;;;479732;248;1133;-74
2021/10/28 01:14:58;;;;;;;;;;;22.40;38.10;;;;;;479555;248;1105;-74
2021/10/28 01:16:58;;;;;;;;;;;22.40;38.10;;;;;;479357;248;1402;-74
2021/10/28 01:19:00;;;;;;;;;;;22.50;37.90;;;;;;479591;248;1167;-74
2021/10/28 01:21:00;;;;;;;;;;;22.50;37.80;;;;;;479521;248;1394;-74
2021/10/28 01:23:02;;;;;;;;;;;22.60;37.80;;;;;;479713;248;1087;-74
2021/10/28 01:25:03;;;;;;;;;;;22.40;37.90;;;;;;479646;248;1010;-74
2021/10/28 01:27:04;;;;;;;;;;;22.50;37.80;;;;;;479640;248;1165;-74
2021/10/28 01:29:05;;;;;;;;;;;22.80;37.50;;;;;;479622;248;951;-74
2021/10/28 01:31:07;;;;;;;;;;;22.50;37.70;;;;;;479627;248;2193;-74
2021/10/28 01:33:08;;;;;;;;;;;22.50;37.80;;;;;;479787;248;1145;-74
2021/10/28 01:35:09;;;;;;;;;;;22.60;37.40;;;;;;479614;248;1056;-74
2021/10/28 01:37:12;;;;;;;;;;;22.50;37.70;;;;;;479557;248;1153;-74
2021/10/28 01:39:12;;;;;;;;;;;22.50;37.90;;;;;;479594;248;1219;-74
2021/10/28 01:41:14;;;;;;;;;;;22.30;38.00;;;;;;479586;248;1355;-74
2021/10/28 01:43:15;;;;;;;;;;;22.40;38.00;;;;;;479609;248;1278;-74
2021/10/28 01:45:17;;;;;;;;;;;22.40;37.80;;;;;;479561;248;1384;-74
2021/10/28 01:47:18;;;;;;;;;;;22.60;37.60;;;;;;479701;248;1057;-74
2021/10/28 01:49:19;;;;;;;;;;;22.50;37.70;;;;;;479627;248;1205;-74
2021/10/28 01:51:21;;;;;;;;;;;22.60;37.50;;;;;;479553;246;2177;-74
2021/10/28 01:53:22;;;;;;;;;;;22.60;37.40;;;;;;479612;248;1001;-74
2021/10/28 01:55:23;;;;;;;;;;;22.40;37.70;;;;;;479667;248;944;-74
2021/10/28 01:57:25;;;;;;;;;;;22.60;37.30;;;;;;479638;248;1149;-74
2021/10/28 01:59:26;;;;;;;;;;;22.30;37.80;;;;;;479628;248;998;-74
2021/10/28 02:01:27;;;;;;;;;;;22.40;37.70;;;;;;479517;248;1133;-74
2021/10/28 02:03:29;;;;;;;;;;;22.20;38.10;;;;;;479720;248;1154;-74
2021/10/28 02:05:30;;;;;;;;;;;22.30;37.70;;;;;;479653;248;937;-74
2021/10/28 02:07:31;;;;;;;;;;;22.40;37.70;;;;;;479703;246;1211;-74
2021/10/28 02:09:32;;;;;;;;;;;22.40;37.60;;;;;;479619;248;1160;-74
2021/10/28 02:11:34;;;;;;;;;;;22.50;37.50;;;;;;479474;248;2178;-74
2021/10/28 02:13:35;;;;;;;;;;;22.30;37.70;;;;;;479620;248;1007;-74
2021/10/28 02:15:37;;;;;;;;;;;22.40;37.70;;;;;;479615;248;925;-74
2021/10/28 02:17:38;;;;;;;;;;;22.50;37.30;;;;;;479567;248;1227;-74
2021/10/28 02:19:39;;;;;;;;;;;22.40;37.50;;;;;;479694;248;1166;-74
2021/10/28 02:21:41;;;;;;;;;;;22.30;37.60;;;;;;479622;248;1347;-74
2021/10/28 02:23:42;;;;;;;;;;;22.20;37.70;;;;;;479676;248;1390;-74
2021/10/28 02:25:43;;;;;;;;;;;22.30;37.60;;;;;;479684;248;1100;-74
2021/10/28 02:27:46;;;;;;;;;;;22.40;37.20;;;;;;479589;248;1138;-74
2021/10/28 02:29:46;;;;;;;;;;;22.40;37.40;;;;;;479793;248;1469;-74
2021/10/28 02:31:47;;;;;;;;;;;22.30;37.50;;;;;;479590;248;2122;-74
2021/10/28 02:33:49;;;;;;;;;;;22.50;37.10;;;;;;479658;248;1191;-74
2021/10/28 02:35:50;;;;;;;;;;;22.50;37.10;;;;;;479584;248;1214;-74
2021/10/28 02:37:51;;;;;;;;;;;22.40;37.30;;;;;;479656;248;1199;-74
2021/10/28 02:39:53;;;;;;;;;;;22.40;37.20;;;;;;479621;248;1099;-74
2021/10/28 02:41:54;;;;;;;;;;;22.50;37.20;;;;;;479507;248;1205;-74
2021/10/28 02:43:56;;;;;;;;;;;22.40;37.20;;;;;;479647;248;1145;-74
2021/10/28 02:45:57;;;;;;;;;;;22.40;37.20;;;;;;479634;248;1136;-74
2021/10/28 02:47:59;;;;;;;;;;;22.20;37.50;;;;;;479664;248;1009;-74
2021/10/28 02:50:00;;;;;;;;;;;22.30;37.50;;;;;;479680;248;1188;-74
2021/10/28 02:52:01;;;;;;;;;;;22.30;37.20;;;;;;479600;248;2205;-74
2021/10/28 02:54:03;;;;;;;;;;;22.50;37.20;;;;;;479637;248;1020;-74
2021/10/28 02:56:04;;;;;;;;;;;22.30;37.20;;;;;;479536;248;1168;-74
2021/10/28 02:58:05;;;;;;;;;;;22.40;37.20;;;;;;479653;248;1101;-74
2021/10/28 03:00:07;;;;;;;;;;;22.50;37.10;;;;;;479771;248;1202;-74
2021/10/28 03:02:08;;;;;;;;;;;22.40;37.20;;;;;;479673;246;1283;-74
2021/10/28 03:04:09;;;;;;;;;;;22.30;36.90;;;;;;479621;248;1282;-74
2021/10/28 03:06:11;;;;;;;;;;;22.30;37.30;;;;;;479555;248;1148;-74
2021/10/28 03:08:13;;;;;;;;;;;22.30;37.20;;;;;;479716;248;1130;-74
2021/10/28 03:10:15;;;;;;;;;;;22.50;36.90;;;;;;479611;248;1202;-74
2021/10/28 03:12:15;;;;;;;;;;;22.50;36.80;;;;;;479490;245;2190;-74
2021/10/28 03:14:18;;;;;;;;;;;22.50;37.00;;;;;;479610;248;968;-74
2021/10/28 03:16:23;;;;;;;;;;;22.40;37.20;;;;;;479519;248;1347;-74
2021/10/28 03:25:37;;;;;;;;;;;22.40;37.00;;;;;;467923;255;1181;-74
2021/10/28 03:27:37;;;;;;;;;;;22.30;37.20;;;;;;479456;248;1315;-74
2021/10/28 03:29:38;;;;;;;;;;;22.30;37.20;;;;;;479587;248;1112;-74
2021/10/28 03:31:40;;;;;;;;;;;22.40;37.20;;;;;;479552;248;2126;-74
2021/10/28 03:33:45;;;;;;;;;;;22.30;37.20;;;;;;479681;248;968;-74
2021/10/28 03:35:45;;;;;;;;;;;22.30;37.20;;;;;;479530;248;1639;-74
2021/10/28 03:37:47;;;;;;;;;;;22.30;37.20;;;;;;479373;248;1469;-74
2021/10/28 03:40:04;;;;;;;;;;;22.40;37.20;;;;;;479440;248;1301;-74
2021/10/28 03:54:08;;;;;;;;;;;22.30;37.20;;;;;;479591;248;2170;-74
2021/10/28 03:56:29;;;;;;;;;;;22.30;37.20;;;;;;478669;248;1467;-74
2021/10/28 03:58:34;;;;;;;;;;;22.30;37.20;;;;;;478799;248;1421;-74
2021/10/28 04:19:47;;;;;;;;;;;22.30;37.00;;;;;;479639;248;1017;-74
2021/10/28 04:29:03;;;;;;;;;;;22.30;37.00;;;;;;479546;247;959;-74
2021/10/28 04:31:00;;;;;;;;;;;22.40;37.10;;;;;;479247;248;1469;-74
2021/10/28 04:33:01;;;;;;;;;;;22.30;37.20;;;;;;479656;248;2181;-74
2021/10/28 04:35:02;;;;;;;;;;;22.50;37.00;;;;;;479440;248;1297;-74
2021/10/28 04:37:04;;;;;;;;;;;22.50;36.90;;;;;;479433;248;1173;-74
2021/10/28 04:39:05;;;;;;;;;;;22.40;37.00;;;;;;479490;248;1060;-74
2021/10/28 04:41:06;;;;;;;;;;;22.40;37.00;;;;;;479363;248;1219;-74
2021/10/28 04:43:08;;;;;;;;;;;22.40;37.00;;;;;;479580;248;1116;-74
2021/10/28 04:45:09;;;;;;;;;;;22.50;36.80;;;;;;479446;248;941;-74
2021/10/28 04:47:10;;;;;;;;;;;22.30;37.00;;;;;;479367;248;1191;-74
2021/10/28 04:49:12;;;;;;;;;;;22.40;37.00;;;;;;479492;248;958;-74
2021/10/28 04:51:13;;;;;;;;;;;22.50;36.80;;;;;;479368;248;1300;-74
2021/10/28 04:53:15;;;;;;;;;;;22.40;36.90;;;;;;479453;248;2181;-74
2021/10/28 04:55:16;;;;;;;;;;;22.40;36.90;;;;;;479430;248;1046;-74
2021/10/28 04:57:17;;;;;;;;;;;22.50;36.90;;;;;;479425;248;1265;-74
2021/10/28 04:59:18;;;;;;;;;;;22.50;36.80;;;;;;479374;248;966;-74
2021/10/28 05:01:22;;;;;;;;;;;22.40;36.80;;;;;;479254;246;1308;-74
2021/10/28 05:03:21;;;;;;;;;;;22.30;37.00;;;;;;479312;248;1300;-74
2021/10/28 05:05:22;;;;;;;;;;;22.30;37.20;;;;;;479381;248;1275;-74
2021/10/28 05:07:24;;;;;;;;;;;22.30;37.20;;;;;;479405;248;1105;-74
2021/10/28 05:09:28;;;;;;;;;;;22.30;37.20;;;;;;479390;248;1084;-74
2021/10/28 05:11:28;;;;;;;;;;;22.40;36.90;;;;;;479224;248;1317;-74
2021/10/28 05:13:29;;;;;;;;;;;22.50;36.90;;;;;;479441;248;2123;-74
2021/10/28 05:15:30;;;;;;;;;;;22.40;36.90;;;;;;479409;248;1201;-74
2021/10/28 05:17:32;;;;;;;;;;;22.30;37.00;;;;;;479378;248;1227;-74
2021/10/28 05:19:37;;;;;;;;;;;22.40;36.90;;;;;;479397;248;1033;-74
2021/10/28 05:21:34;;;;;;;;;;;22.40;37.00;;;;;;479173;248;1339;-74
2021/10/28 05:23:36;;;;;;;;;;;22.50;36.70;;;;;;479379;248;929;-74
2021/10/28 05:25:37;;;;;;;;;;;22.50;36.80;;;;;;479216;248;1085;-74
2021/10/28 05:27:38;;;;;;;;;;;22.40;36.90;;;;;;479304;248;1237;-74
2021/10/28 05:29:40;;;;;;;;;;;22.60;36.70;;;;;;479287;248;1094;-74
2021/10/28 05:31:41;;;;;;;;;;;22.50;37.00;;;;;;479236;248;1197;-74
2021/10/28 05:33:43;;;;;;;;;;;22.50;36.90;;;;;;479249;248;2190;-74
2021/10/28 05:35:44;;;;;;;;;;;22.30;37.10;;;;;;479147;248;1261;-74
2021/10/28 05:37:45;;;;;;;;;;;22.50;37.10;;;;;;479287;248;1072;-74
2021/10/28 05:39:47;;;;;;;;;;;22.30;37.20;;;;;;479306;248;1213;-74
2021/10/28 05:41:48;;;;;;;;;;;22.50;37.10;;;;;;479140;248;1192;-74
2021/10/28 05:43:49;;;;;;;;;;;22.40;37.20;;;;;;479221;248;975;-74
2021/10/28 05:45:51;;;;;;;;;;;22.30;37.20;;;;;;479137;248;1041;-74
2021/10/28 05:47:52;;;;;;;;;;;22.30;37.20;;;;;;479143;248;1133;-74
2021/10/28 05:49:54;;;;;;;;;;;22.40;37.10;;;;;;479281;248;1135;-75
2021/10/28 05:51:55;;;;;;;;;;;22.20;37.30;;;;;;479242;248;1281;-75
2021/10/28 05:53:56;;;;;;;;;;;22.40;37.20;;;;;;479225;248;2138;-74
2021/10/28 05:55:58;;;;;;;;;;;22.50;37.10;;;;;;479196;245;1202;-74
2021/10/28 05:57:59;;;;;;;;;;;22.30;37.20;;;;;;479170;248;1057;-74
2021/10/28 06:00:00;;;;;;;;;;;22.30;37.20;;;;;;479240;248;1221;-75
2021/10/28 06:02:02;;;;;;;;;;;22.30;37.30;;;;;;479158;245;1224;-74
2021/10/28 06:04:03;;;;;;;;;;;22.30;37.30;;;;;;479138;248;1056;-75
2021/10/28 06:06:04;;;;;;;;;;;22.40;37.20;;;;;;478996;248;1301;-74
2021/10/28 06:08:06;;;;;;;;;;;22.30;37.30;;;;;;479188;248;1127;-74
2021/10/28 06:10:07;;;;;;;;;;;22.70;36.90;;;;;;479004;248;1131;-75
2021/10/28 06:12:09;;;;;;;;;;;22.60;36.90;;;;;;479135;248;1175;-74
2021/10/28 06:14:10;;;;;;;;;;;22.40;37.20;;;;;;479259;248;2191;-74
2021/10/28 06:16:12;;;;;;;;;;;22.30;37.40;;;;;;479128;248;1360;-74
2021/10/28 06:18:35;;;;;;;;;;;22.30;37.40;;;;;;479132;248;1834;-74
2021/10/28 06:20:15;;;;;;;;;;;22.30;37.30;;;;;;477704;249;1166;-74
2021/10/28 06:22:16;;;;;;;;;;;22.20;37.50;;;;;;479011;248;1102;-74
2021/10/28 06:24:18;;;;;;;;;;;22.20;37.60;;;;;;479047;248;1159;-74
2021/10/28 06:26:19;;;;;;;;;;;22.30;37.60;;;;;;479062;248;1199;-74
2021/10/28 06:28:20;;;;;;;;;;;22.30;37.50;;;;;;479207;248;1208;-74
2021/10/28 06:30:22;;;;;;;;;;;22.30;37.60;;;;;;479097;248;991;-74
2021/10/28 06:32:23;;;;;;;;;;;22.40;37.40;;;;;;479127;248;1400;-74
2021/10/28 06:34:27;;;;;;;;;;;22.40;37.30;;;;;;478903;248;2191;-74
2021/10/28 06:36:27;;;;;;;;;;;22.20;37.60;;;;;;478811;248;1408;-74
2021/10/28 06:38:30;;;;;;;;;;;22.20;37.60;;;;;;478918;248;1024;-74
2021/10/28 06:40:29;;;;;;;;;;;22.10;37.90;;;;;;478959;248;1294;-74
2021/10/28 06:42:31;;;;;;;;;;;22.20;37.70;;;;;;479082;248;1114;-74
2021/10/28 06:44:32;;;;;;;;;;;22.20;37.60;;;;;;478912;248;998;-74
2021/10/28 06:46:33;;;;;;;;;;;22.30;37.60;;;;;;478742;248;1042;-74
2021/10/28 06:48:35;;;;;;;;;;;22.20;37.60;;;;;;478727;248;1152;-74
2021/10/28 06:50:41;;;;;;;;;;;22.20;37.60;;;;;;478805;248;1052;-74
2021/10/28 06:52:48;;;;;;;;;;;22.20;37.70;;;;;;478480;248;1932;-74
2021/10/28 06:54:42;;;;;;;;;;;22.60;37.20;;;;;;478127;248;2314;-74
2021/10/28 07:03:48;;;;;;;;;;;23.30;35.90;;;;;;478843;248;988;-74
2021/10/28 07:05:49;;;;;;;;;;;23.20;35.80;;;;;;478909;248;1336;-74
2021/10/28 07:07:51;;;;;;;;;;;23.40;35.70;;;;;;478791;248;1155;-74
2021/10/28 07:09:59;;;;;;;;;;;23.40;35.60;;;;;;479099;248;1348;-74
2021/10/28 07:12:04;;;;;;;;;;;23.40;35.60;;;;;;478440;248;1416;-74
2021/10/28 07:13:56;;;;;;;;;;;23.40;35.50;;;;;;478192;248;2131;-75
2021/10/28 07:15:59;;;;;;;;;;;23.40;35.60;;;;;;479063;246;1344;-75
2021/10/28 07:18:16;;;;;;;;;;;23.40;35.60;;;;;;478726;248;1302;-75
2021/10/28 07:20:31;;;;;;;;;;;23.40;35.70;;;;;;478312;248;1412;-74
2021/10/28 07:22:43;;;;;;;;;;;23.40;35.60;;;;;;478670;248;1328;-74
2021/10/28 07:24:55;;;;;;;;;;;23.40;35.80;;;;;;479513;248;1221;-74
2021/10/28 07:34:20;;;;;;;;;;;23.40;35.70;;;;;;478860;248;2115;-74
2021/10/28 07:36:38;;;;;;;;;;;23.50;35.60;;;;;;478512;248;1400;-74
2021/10/28 07:38:58;;;;;;;;;;;23.50;35.60;;;;;;478560;248;1395;-75
2021/10/28 07:55:31;;;;;;;;;;;23.30;36.00;;;;;;478749;249;2123;-74
2021/10/28 08:14:34;;;;;;;;;;;22.80;37.20;;;;;;478734;246;2146;-61
2021/10/28 08:18:55;;;;;;;;;;;22.90;36.90;;;;;;471553;248;1206;-63
2021/10/28 08:21:10;;;;;;;;;;;23.00;37.00;;;;;;478667;248;1431;-63
2021/10/28 08:23:09;;;;;;;;;;;22.90;37.10;;;;;;478723;248;1843;-64
2021/10/28 08:29:47;;;;;;;;;;;22.80;37.40;;;;;;478657;249;1593;-62
2021/10/28 08:31:47;;;;;;;;;;;22.70;37.40;;;;;;478422;248;1302;-62
2021/10/28 08:33:48;;;;;;;;;;;22.70;37.40;;;;;;478646;248;2123;-62
2021/10/28 08:35:55;;;;;;;;;;;22.80;37.40;;;;;;478686;246;1200;-64
2021/10/28 08:37:57;;;;;;;;;;;22.80;37.40;;;;;;478718;248;1336;-63
2021/10/28 08:39:56;;;;;;;;;;;22.70;37.40;;;;;;478639;249;1401;-63
2021/10/28 08:41:57;;;;;;;;;;;22.70;37.50;;;;;;478757;248;1059;-63
2021/10/28 08:43:58;;;;;;;;;;;22.60;37.70;;;;;;478685;248;1096;-62
2021/10/28 08:46:01;;;;;;;;;;;22.60;37.70;;;;;;478633;248;1205;-63
2021/10/28 08:48:04;;;;;;;;;;;22.70;37.50;;;;;;478673;248;1073;-63
2021/10/28 08:50:08;;;;;;;;;;;22.70;37.50;;;;;;478599;248;1335;-63
2021/10/28 08:52:18;;;;;;;;;;;22.80;37.40;;;;;;478458;248;1788;-63
2021/10/28 08:54:42;;;;;;;;;;;22.80;37.40;;;;;;478082;248;2250;-63
2021/10/28 08:56:36;;;;;;;;;;;22.80;37.40;;;;;;477323;248;1442;-63
2021/10/28 08:58:48;;;;;;;;;;;22.80;37.40;;;;;;478465;248;1362;-67
2021/10/28 09:19:45;;;;;;;;;;;21.70;39.50;;;;;;478751;249;1004;-67
2021/10/28 09:24:09;;;;;;;;;;;21.70;39.50;;;;;;478872;249;1198;-66
2021/10/28 09:26:06;;;;;;;;;;;21.80;39.50;;;;;;478464;245;1888;-66
2021/10/28 09:28:15;;;;;;;;;;;21.70;39.60;;;;;;478751;248;1055;-66
2021/10/28 09:30:11;;;;;;;;;;;21.80;39.70;;;;;;478452;248;1586;-66
2021/10/28 09:32:18;;;;;;;;;;;21.70;39.60;;;;;;478751;248;1420;-66
2021/10/28 09:34:23;;;;;;;;;;;21.80;39.60;;;;;;478712;248;2198;-66
2021/10/28 09:43:33;;;;;;;;;;;21.80;39.40;;;;;;478348;248;2278;-66
2021/10/28 09:45:39;;;;;;;;;;;21.80;39.60;;;;;;467166;255;1314;-66
2021/10/28 09:47:51;;;;;;;;;;;21.80;39.60;;;;;;473234;248;1395;-66
2021/10/28 09:49:56;;;;;;;;;;;21.80;39.50;;;;;;478679;248;2031;-66
2021/10/28 09:51:52;;;;;;;;;;;21.80;39.50;;;;;;478475;248;1432;-66
2021/10/28 09:54:03;;;;;;;;;;;21.90;39.40;;;;;;478896;248;2131;-67
2021/10/28 09:58:20;;;;;;;;;;;21.80;39.70;;;;;;478890;248;1128;-67
2021/10/28 10:00:22;;;;;;;;;;;21.70;39.90;;;;;;478942;248;1028;-67
2021/10/28 10:02:32;;;;;;;;;;;21.70;39.70;;;;;;478936;248;1223;-66
2021/10/28 10:04:26;;;;;;;;;;;21.90;39.70;;;;;;478455;248;2314;-66
2021/10/28 10:06:27;;;;;;;;;;;21.90;39.50;;;;;;478858;248;1464;-66
2021/10/28 10:08:28;;;;;;;;;;;21.90;39.60;;;;;;479464;248;981;-66
2021/10/28 10:10:29;;;;;;;;;;;21.90;39.70;;;;;;479129;248;1081;-67
2021/10/28 10:12:31;;;;;;;;;;;21.90;39.60;;;;;;478791;248;1125;-66
2021/10/28 10:14:32;;;;;;;;;;;21.90;39.70;;;;;;478841;248;2126;-66
2021/10/28 10:16:33;;;;;;;;;;;21.80;39.70;;;;;;478703;246;1391;-66
2021/10/28 10:18:36;;;;;;;;;;;21.80;39.70;;;;;;478802;248;1079;-66
2021/10/28 10:20:39;;;;;;;;;;;21.80;39.70;;;;;;478929;248;1413;-66
2021/10/28 10:22:46;;;;;;;;;;;21.80;39.70;;;;;;478882;248;1448;-67
2021/10/28 10:24:55;;;;;;;;;;;21.90;39.80;;;;;;478760;248;2342;-66
2021/10/28 10:27:09;;;;;;;;;;;21.90;39.80;;;;;;478474;248;2136;-66
2021/10/28 10:29:22;;;;;;;;;;;21.70;40.00;;;;;;478057;248;1854;-66
2021/10/28 11:06:40;;;;;;;;;;;21.80;40.10;;;;;;479039;248;1291;-66
2021/10/28 11:16:07;;;;;;;;;;;21.70;40.50;;;;;;478956;249;2115;-66
2021/10/28 11:21:03;;;;;;;;;;;21.60;40.60;;;;;;479095;248;960;-66
2021/10/28 11:23:04;;;;;;;;;;;21.60;40.70;;;;;;477686;249;1235;-66
2021/10/28 11:27:34;;;;;;;;;;;21.50;41.00;;;;;;479070;248;1224;-66
2021/10/28 12:21:58;;;;;;;;;;;23.40;38.10;;;;;;466721;255;1183;-73
2021/10/28 12:24:00;;;;;;;;;;;23.40;38.10;;;;;;477507;248;1438;-73
2021/10/28 12:45:04;;;;;;;;;;;23.30;38.30;;;;;;478708;249;1088;-73
2021/10/28 12:49:52;;;;;;;;;;;23.40;38.20;;;;;;478876;248;1098;-73
2021/10/28 12:52:10;;;;;;;;;;;23.40;38.20;;;;;;477961;248;1399;-73
2021/10/28 12:54:12;;;;;;;;;;;23.40;38.30;;;;;;478118;248;1511;-73
2021/10/28 12:56:27;;;;;;;;;;;23.30;38.30;;;;;;478458;248;2192;-73
2021/10/28 13:03:29;;;;;;;;;;;23.40;38.30;;;;;;478691;249;1156;-73
2021/10/28 13:27:55;;;;;;;;;;;23.30;38.30;;;;;;471819;248;1244;-74
2021/10/28 13:50:07;;;;;;;;;;;23.40;38.40;;;;;;478563;248;1107;-73
2021/10/28 13:52:12;;;;;;;;;;;23.40;38.40;;;;;;478204;248;1428;-73
2021/10/28 13:54:32;;;;;;;;;;;23.30;38.60;;;;;;478136;248;1463;-73
2021/10/28 14:20:58;;;;;;;;;;;23.70;38.00;;;;;;478726;248;1129;-73
2021/10/28 14:25:38;;;;;;;;;;;23.60;38.00;;;;;;478750;249;1175;-73
2021/10/28 14:27:40;;;;;;;;;;;23.50;38.10;;;;;;477911;248;1357;-73
2021/10/28 14:29:55;;;;;;;;;;;23.60;38.00;;;;;;478545;248;1432;-73
2021/10/28 15:01:03;;;;;;;;;;;23.50;38.20;;;;;;478723;248;1086;-73
2021/10/28 15:28:16;;;;;;;;;;;23.60;38.30;;;;;;478946;249;1117;-73
2021/10/28 15:30:18;;;;;;;;;;;23.50;38.20;;;;;;478881;248;1381;-73
2021/10/28 15:35:01;;;;;;;;;;;23.50;38.20;;;;;;475716;248;1182;-73
2021/10/28 15:37:03;;;;;;;;;;;23.50;38.30;;;;;;478641;248;1896;-73
2021/10/28 15:39:07;;;;;;;;;;;23.60;38.30;;;;;;478699;248;1406;-73
2021/10/28 15:41:21;;;;;;;;;;;23.60;38.30;;;;;;478611;248;1422;-73
2021/10/28 16:00:03;;;;;;;;;;;23.70;37.90;;;;;;478967;249;1229;-74
2021/10/28 16:23:02;;;;;;;;;;;23.60;37.50;;;;;;479315;246;1276;-73
2021/10/28 16:25:04;;;;;;;;;;;23.60;37.30;;;;;;479332;248;1030;-73
2021/10/28 16:27:05;;;;;;;;;;;23.50;37.40;;;;;;479318;248;1108;-73
2021/10/28 16:29:08;;;;;;;;;;;23.60;37.30;;;;;;479335;248;1146;-73
2021/10/28 16:31:08;;;;;;;;;;;23.50;37.40;;;;;;479272;248;1926;-74
2021/10/28 16:33:10;;;;;;;;;;;23.50;37.40;;;;;;479211;248;1052;-74
2021/10/28 16:35:11;;;;;;;;;;;23.50;37.40;;;;;;479206;248;2246;-74
2021/10/28 16:37:14;;;;;;;;;;;23.60;37.30;;;;;;479290;248;1237;-73
2021/10/28 16:39:14;;;;;;;;;;;23.50;37.20;;;;;;479236;245;1402;-73
2021/10/28 16:41:15;;;;;;;;;;;23.60;37.10;;;;;;479255;248;1187;-73
2021/10/28 16:43:17;;;;;;;;;;;23.60;37.10;;;;;;479402;248;1070;-74
2021/10/28 16:45:18;;;;;;;;;;;23.60;37.10;;;;;;479302;248;1123;-73
2021/10/28 16:47:19;;;;;;;;;;;23.50;37.20;;;;;;479156;248;1144;-73
2021/10/28 16:49:22;;;;;;;;;;;23.50;37.10;;;;;;479240;248;1070;-73
2021/10/28 16:51:23;;;;;;;;;;;23.40;37.30;;;;;;479229;248;1434;-73
2021/10/28 16:53:24;;;;;;;;;;;23.50;37.20;;;;;;479189;248;1375;-73
2021/10/28 16:55:25;;;;;;;;;;;23.40;37.30;;;;;;479265;248;2186;-73
2021/10/28 16:57:27;;;;;;;;;;;23.50;37.20;;;;;;479225;248;1184;-73
2021/10/28 16:59:28;;;;;;;;;;;23.40;37.20;;;;;;479291;248;1176;-73
2021/10/28 17:01:29;;;;;;;;;;;23.40;37.20;;;;;;479278;248;1203;-73
2021/10/28 17:03:31;;;;;;;;;;;23.40;37.20;;;;;;479383;248;1047;-73
2021/10/28 17:05:32;;;;;;;;;;;23.50;37.10;;;;;;479411;248;1326;-73
2021/10/28 17:07:33;;;;;;;;;;;23.50;37.10;;;;;;479306;248;1136;-73
2021/10/28 17:09:35;;;;;;;;;;;23.50;37.10;;;;;;479325;248;1033;-73
2021/10/28 17:11:36;;;;;;;;;;;23.50;37.00;;;;;;479196;248;1138;-73
2021/10/28 17:13:38;;;;;;;;;;;23.50;36.80;;;;;;479341;248;1114;-73
2021/10/28 17:15:39;;;;;;;;;;;23.60;36.90;;;;;;479322;248;2153;-73
2021/10/28 17:17:40;;;;;;;;;;;23.50;37.00;;;;;;479296;248;1162;-74
2021/10/28 17:19:42;;;;;;;;;;;23.40;37.10;;;;;;479375;248;1130;-74
2021/10/28 17:21:44;;;;;;;;;;;23.40;37.10;;;;;;479316;248;1213;-74
2021/10/28 17:23:49;;;;;;;;;;;23.40;37.00;;;;;;479287;248;1464;-74
2021/10/28 17:25:51;;;;;;;;;;;23.50;37.00;;;;;;479080;248;1490;-74
2021/10/28 17:27:47;;;;;;;;;;;23.50;37.00;;;;;;479105;248;1408;-74
2021/10/28 17:29:48;;;;;;;;;;;23.40;37.10;;;;;;479460;248;1120;-73
2021/10/28 17:31:52;;;;;;;;;;;23.40;37.10;;;;;;479374;248;1252;-73
2021/10/28 17:33:51;;;;;;;;;;;23.30;37.20;;;;;;479280;248;1458;-73
2021/10/28 17:35:53;;;;;;;;;;;23.30;37.20;;;;;;479363;245;2135;-73
2021/10/28 17:37:54;;;;;;;;;;;23.30;37.10;;;;;;479435;248;1131;-73
2021/10/28 17:39:56;;;;;;;;;;;23.30;37.20;;;;;;479502;248;968;-73
2021/10/28 17:41:57;;;;;;;;;;;23.40;37.00;;;;;;479416;248;1355;-73
2021/10/28 17:43:59;;;;;;;;;;;23.40;36.90;;;;;;479449;248;1066;-73
2021/10/28 17:46:00;;;;;;;;;;;23.50;36.90;;;;;;479394;248;1212;-73
2021/10/28 17:48:01;;;;;;;;;;;23.50;36.90;;;;;;479389;248;1057;-73
2021/10/28 17:50:03;;;;;;;;;;;23.40;37.00;;;;;;479252;248;1294;-73
2021/10/28 17:52:04;;;;;;;;;;;23.40;37.00;;;;;;479304;248;1102;-73
2021/10/28 17:54:09;;;;;;;;;;;23.40;37.00;;;;;;479368;248;967;-73
2021/10/28 17:56:08;;;;;;;;;;;23.50;36.80;;;;;;479278;248;2138;-73
2021/10/28 17:58:10;;;;;;;;;;;23.50;36.80;;;;;;479521;248;1060;-73
2021/10/28 18:00:12;;;;;;;;;;;23.50;36.90;;;;;;479511;248;1151;-73
2021/10/28 18:02:12;;;;;;;;;;;23.50;36.80;;;;;;479395;248;1537;-73
2021/10/28 18:04:14;;;;;;;;;;;23.40;36.80;;;;;;479506;248;948;-73
2021/10/28 18:06:15;;;;;;;;;;;23.50;36.70;;;;;;479318;248;1207;-73
2021/10/28 18:08:16;;;;;;;;;;;23.40;36.70;;;;;;479515;248;1252;-73
2021/10/28 18:10:18;;;;;;;;;;;23.50;36.80;;;;;;479455;248;1199;-73
2021/10/28 18:12:19;;;;;;;;;;;23.50;36.80;;;;;;479438;248;1074;-73
2021/10/28 18:14:21;;;;;;;;;;;23.40;36.80;;;;;;479519;248;1012;-73
2021/10/28 18:16:23;;;;;;;;;;;23.40;36.80;;;;;;479392;248;2169;-74
2021/10/28 18:18:24;;;;;;;;;;;23.40;36.70;;;;;;479495;248;1003;-73
2021/10/28 18:20:25;;;;;;;;;;;23.40;36.70;;;;;;479399;248;1029;-73
2021/10/28 18:22:27;;;;;;;;;;;23.40;36.70;;;;;;479339;248;1097;-73
2021/10/28 18:24:27;;;;;;;;;;;23.40;36.70;;;;;;479457;248;1268;-73
2021/10/28 18:26:29;;;;;;;;;;;23.30;36.80;;;;;;479368;248;1461;-73
2021/10/28 18:28:30;;;;;;;;;;;23.40;36.70;;;;;;479462;248;1022;-73
2021/10/28 18:30:36;;;;;;;;;;;23.50;36.60;;;;;;479456;248;1114;-73
2021/10/28 18:32:33;;;;;;;;;;;23.40;36.60;;;;;;479267;248;1370;-73
2021/10/28 18:34:35;;;;;;;;;;;23.50;36.50;;;;;;479546;248;961;-73
2021/10/28 18:36:36;;;;;;;;;;;23.50;36.50;;;;;;479415;248;2123;-73
2021/10/28 18:38:37;;;;;;;;;;;23.50;36.50;;;;;;479630;248;1204;-73
2021/10/28 18:40:39;;;;;;;;;;;23.50;36.50;;;;;;479567;248;1148;-73
2021/10/28 18:42:40;;;;;;;;;;;23.50;36.30;;;;;;479467;248;1065;-73
2021/10/28 18:44:42;;;;;;;;;;;23.50;36.30;;;;;;479499;248;945;-73
2021/10/28 18:46:43;;;;;;;;;;;23.50;36.30;;;;;;479421;248;1312;-73
2021/10/28 18:48:44;;;;;;;;;;;23.50;36.30;;;;;;479502;248;1134;-73
2021/10/28 18:50:46;;;;;;;;;;;23.40;36.50;;;;;;479456;248;1356;-73
2021/10/28 18:52:47;;;;;;;;;;;23.30;36.60;;;;;;479477;248;1123;-73
2021/10/28 18:54:50;;;;;;;;;;;23.30;36.60;;;;;;479556;248;1059;-73
2021/10/28 18:56:50;;;;;;;;;;;23.40;36.50;;;;;;479284;248;2126;-73
2021/10/28 18:58:51;;;;;;;;;;;23.40;36.50;;;;;;479505;248;1005;-73
2021/10/28 19:00:52;;;;;;;;;;;23.40;36.50;;;;;;479468;248;1149;-73
2021/10/28 19:02:54;;;;;;;;;;;23.50;36.30;;;;;;479566;248;1074;-73
2021/10/28 19:04:55;;;;;;;;;;;23.50;36.30;;;;;;479497;248;1075;-73
2021/10/28 19:06:57;;;;;;;;;;;23.40;36.20;;;;;;479496;248;1131;-74
2021/10/28 19:08:58;;;;;;;;;;;23.60;36.00;;;;;;479601;248;1048;-73
2021/10/28 19:11:00;;;;;;;;;;;23.60;35.90;;;;;;479588;246;1297;-73
2021/10/28 19:13:01;;;;;;;;;;;23.60;35.80;;;;;;479637;248;1154;-73
2021/10/28 19:15:04;;;;;;;;;;;23.60;35.80;;;;;;479666;248;1050;-73